sensor_id;sensor_type;location;lat;lon;timestamp;pressure;altitude;pressure_sealevel;temperature;humidity
51928;BME280;37953;52.806;18.270;2022-07-01T00:01:25;100335.78;;;24.47;100.00
51928;BME280;37953;52.806;18.270;2022-07-01T00:03:51;100331.28;;;24.49;100.00
51928;BME280;37953;52.806;18.270;2022-07-01T00:06:17;100312.00;;;24.45;100.00
51928;BME280;37953;52.806;18.270;2022-07-01T00:08:43;100306.00;;;24.42;100.00
51928;BME280;37953;52.806;18.270;2022-07-01T00:11:09;100303.16;;;24.45;100.00
51928;BME280;37953;52.806;18.270;2022-07-01T00:13:35;100304.03;;;24.45;100.00
51928;BME280;37953;52.806;18.270;2022-07-01T00:16:01;100295.31;;;24.43;100.00
51928;BME280;37953;52.806;18.270;2022-07-01T00:18:27;100303.28;;;24.43;100.00
51928;BME280;37953;52.806;18.270;2022-07-01T00:20:53;100292.72;;;24.42;100.00
51928;BME280;37953;52.806;18.270;2022-07-01T00:23:19;100296.34;;;24.41;100.00
51928;BME280;37953;52.806;18.270;2022-07-01T00:25:45;100288.53;;;24.37;100.00
51928;BME280;37953;52.806;18.270;2022-07-01T00:28:11;100285.19;;;24.34;100.00
51928;BME280;37953;52.806;18.270;2022-07-01T00:30:38;100301.41;;;24.29;100.00
51928;BME280;37953;52.806;18.270;2022-07-01T00:33:04;100312.97;;;24.28;100.00
51928;BME280;37953;52.806;18.270;2022-07-01T00:35:30;100287.81;;;24.20;100.00
51928;BME280;37953;52.806;18.270;2022-07-01T00:37:56;100309.63;;;24.25;100.00
51928;BME280;37953;52.806;18.270;2022-07-01T00:40:25;100306.13;;;24.24;100.00
51928;BME280;37953;52.806;18.270;2022-07-01T00:42:51;100300.81;;;24.24;100.00
51928;BME280;37953;52.806;18.270;2022-07-01T00:45:17;100300.75;;;24.26;100.00
51928;BME280;37953;52.806;18.270;2022-07-01T00:47:44;100294.75;;;24.22;100.00
51928;BME280;37953;52.806;18.270;2022-07-01T00:50:13;100291.31;;;24.20;100.00
51928;BME280;37953;52.806;18.270;2022-07-01T00:52:40;100303.75;;;24.20;100.00
51928;BME280;37953;52.806;18.270;2022-07-01T00:55:08;100300.31;;;24.17;100.00
51928;BME280;37953;52.806;18.270;2022-07-01T00:57:36;100306.53;;;24.16;100.00
51928;BME280;37953;52.806;18.270;2022-07-01T01:00:08;100308.34;;;24.16;100.00
51928;BME280;37953;52.806;18.270;2022-07-01T01:02:36;100319.03;;;24.14;100.00
51928;BME280;37953;52.806;18.270;2022-07-01T01:05:03;100324.44;;;24.13;100.00
51928;BME280;37953;52.806;18.270;2022-07-01T01:07:31;100322.75;;;24.12;100.00
51928;BME280;37953;52.806;18.270;2022-07-01T01:09:59;100320.09;;;24.12;100.00
51928;BME280;37953;52.806;18.270;2022-07-01T01:12:25;100320.00;;;24.13;100.00
51928;BME280;37953;52.806;18.270;2022-07-01T01:14:52;100314.97;;;24.09;100.00
51928;BME280;37953;52.806;18.270;2022-07-01T01:17:18;100312.13;;;24.12;100.00
51928;BME280;37953;52.806;18.270;2022-07-01T01:19:44;100297.16;;;24.11;100.00
51928;BME280;37953;52.806;18.270;2022-07-01T01:22:14;100293.72;;;24.09;100.00
51928;BME280;37953;52.806;18.270;2022-07-01T01:24:41;100283.00;;;24.10;100.00
51928;BME280;37953;52.806;18.270;2022-07-01T01:27:07;100280.53;;;24.07;100.00
51928;BME280;37953;52.806;18.270;2022-07-01T01:29:35;100277.03;;;24.07;100.00
51928;BME280;37953;52.806;18.270;2022-07-01T01:32:08;100266.50;;;24.05;100.00
51928;BME280;37953;52.806;18.270;2022-07-01T01:34:35;100265.81;;;24.02;100.00
51928;BME280;37953;52.806;18.270;2022-07-01T01:37:03;100264.97;;;24.01;100.00
51928;BME280;37953;52.806;18.270;2022-07-01T01:39:35;100256.22;;;23.99;100.00
51928;BME280;37953;52.806;18.270;2022-07-01T01:42:05;100259.03;;;23.96;100.00
51928;BME280;37953;52.806;18.270;2022-07-01T01:44:37;100252.03;;;23.95;100.00
51928;BME280;37953;52.806;18.270;2022-07-01T01:47:03;100243.31;;;23.93;100.00
51928;BME280;37953;52.806;18.270;2022-07-01T01:49:29;100247.00;;;23.90;100.00
51928;BME280;37953;52.806;18.270;2022-07-01T01:51:56;100242.63;;;23.89;100.00
51928;BME280;37953;52.806;18.270;2022-07-01T01:54:25;100239.09;;;23.89;100.00
51928;BME280;37953;52.806;18.270;2022-07-01T01:56:57;100238.34;;;23.87;100.00
51928;BME280;37953;52.806;18.270;2022-07-01T01:59:23;100235.88;;;23.84;100.00
51928;BME280;37953;52.806;18.270;2022-07-01T02:01:49;100234.22;;;23.81;100.00
51928;BME280;37953;52.806;18.270;2022-07-01T02:04:16;100234.41;;;23.78;100.00
51928;BME280;37953;52.806;18.270;2022-07-01T02:06:42;100248.63;;;23.77;100.00
51928;BME280;37953;52.806;18.270;2022-07-01T02:09:08;100251.59;;;23.71;100.00
51928;BME280;37953;52.806;18.270;2022-07-01T02:11:37;100252.50;;;23.70;100.00
51928;BME280;37953;52.806;18.270;2022-07-01T02:14:03;100254.47;;;23.66;100.00
51928;BME280;37953;52.806;18.270;2022-07-01T02:16:29;100253.69;;;23.64;100.00
51928;BME280;37953;52.806;18.270;2022-07-01T02:18:55;100252.06;;;23.62;100.00
51928;BME280;37953;52.806;18.270;2022-07-01T02:21:21;100250.47;;;23.59;100.00
51928;BME280;37953;52.806;18.270;2022-07-01T02:24:00;100251.31;;;23.60;100.00
51928;BME280;37953;52.806;18.270;2022-07-01T02:26:26;100255.84;;;23.57;100.00
51928;BME280;37953;52.806;18.270;2022-07-01T02:28:52;100253.28;;;23.56;100.00
51928;BME280;37953;52.806;18.270;2022-07-01T02:31:17;100258.66;;;23.54;100.00
51928;BME280;37953;52.806;18.270;2022-07-01T02:33:43;100254.47;;;23.50;100.00
51928;BME280;37953;52.806;18.270;2022-07-01T02:36:09;100254.63;;;23.47;100.00
51928;BME280;37953;52.806;18.270;2022-07-01T02:38:35;100251.22;;;23.45;100.00
51928;BME280;37953;52.806;18.270;2022-07-01T02:41:01;100253.94;;;23.44;100.00
51928;BME280;37953;52.806;18.270;2022-07-01T02:43:27;100259.41;;;23.41;100.00
51928;BME280;37953;52.806;18.270;2022-07-01T02:45:53;100259.41;;;23.41;100.00
51928;BME280;37953;52.806;18.270;2022-07-01T02:48:19;100272.75;;;23.39;100.00
51928;BME280;37953;52.806;18.270;2022-07-01T02:50:46;100289.59;;;23.38;100.00
51928;BME280;37953;52.806;18.270;2022-07-01T02:53:12;100290.63;;;23.35;100.00
51928;BME280;37953;52.806;18.270;2022-07-01T02:55:38;100296.94;;;23.33;100.00
51928;BME280;37953;52.806;18.270;2022-07-01T02:58:04;100296.06;;;23.32;100.00
51928;BME280;37953;52.806;18.270;2022-07-01T03:00:29;100288.13;;;23.32;100.00
51928;BME280;37953;52.806;18.270;2022-07-01T03:02:55;100292.56;;;23.32;100.00
51928;BME280;37953;52.806;18.270;2022-07-01T03:05:21;100306.78;;;23.31;100.00
51928;BME280;37953;52.806;18.270;2022-07-01T03:07:47;100293.53;;;23.31;100.00
51928;BME280;37953;52.806;18.270;2022-07-01T03:10:14;100288.22;;;23.31;100.00
51928;BME280;37953;52.806;18.270;2022-07-01T03:12:40;100285.72;;;23.28;100.00
51928;BME280;37953;52.806;18.270;2022-07-01T03:15:14;100291.19;;;23.25;100.00
51928;BME280;37953;52.806;18.270;2022-07-01T03:17:46;100290.47;;;23.21;100.00
51928;BME280;37953;52.806;18.270;2022-07-01T03:20:15;100295.78;;;23.21;100.00
51928;BME280;37953;52.806;18.270;2022-07-01T03:22:43;100295.84;;;23.20;100.00
51928;BME280;37953;52.806;18.270;2022-07-01T03:25:10;100289.78;;;23.17;100.00
51928;BME280;37953;52.806;18.270;2022-07-01T03:27:36;100302.13;;;23.19;100.00
51928;BME280;37953;52.806;18.270;2022-07-01T03:30:11;100299.38;;;23.20;100.00
51928;BME280;37953;52.806;18.270;2022-07-01T03:32:38;100295.19;;;23.16;100.00
51928;BME280;37953;52.806;18.270;2022-07-01T03:35:04;100291.66;;;23.15;100.00
51928;BME280;37953;52.806;18.270;2022-07-01T03:37:50;100293.38;;;23.16;100.00
51928;BME280;37953;52.806;18.270;2022-07-01T03:40:16;100292.59;;;23.14;100.00
51928;BME280;37953;52.806;18.270;2022-07-01T03:42:42;100282.06;;;23.13;100.00
51928;BME280;37953;52.806;18.270;2022-07-01T03:45:09;100281.31;;;23.11;100.00
51928;BME280;37953;52.806;18.270;2022-07-01T03:47:35;100278.75;;;23.09;100.00
51928;BME280;37953;52.806;18.270;2022-07-01T03:50:01;100279.69;;;23.08;100.00
51928;BME280;37953;52.806;18.270;2022-07-01T03:52:27;100285.81;;;23.09;100.00
51928;BME280;37953;52.806;18.270;2022-07-01T03:54:53;100283.19;;;23.09;100.00
51928;BME280;37953;52.806;18.270;2022-07-01T03:57:19;100282.31;;;23.08;100.00
51928;BME280;37953;52.806;18.270;2022-07-01T03:59:46;100281.31;;;23.11;100.00
51928;BME280;37953;52.806;18.270;2022-07-01T04:02:12;100286.59;;;23.11;100.00
51928;BME280;37953;52.806;18.270;2022-07-01T04:04:38;100284.72;;;23.13;100.00
51928;BME280;37953;52.806;18.270;2022-07-01T04:07:05;100276.72;;;23.14;100.00
51928;BME280;37953;52.806;18.270;2022-07-01T04:09:32;100283.69;;;23.15;100.00
51928;BME280;37953;52.806;18.270;2022-07-01T04:11:58;100275.75;;;23.15;100.00
51928;BME280;37953;52.806;18.270;2022-07-01T04:14:25;100282.78;;;23.16;100.00
51928;BME280;37953;52.806;18.270;2022-07-01T04:16:50;100280.97;;;23.17;100.00
51928;BME280;37953;52.806;18.270;2022-07-01T04:19:17;100285.34;;;23.18;100.00
51928;BME280;37953;52.806;18.270;2022-07-01T04:21:43;100279.97;;;23.20;100.00
51928;BME280;37953;52.806;18.270;2022-07-01T04:24:31;100286.91;;;23.22;100.00
51928;BME280;37953;52.806;18.270;2022-07-01T04:27:00;100291.25;;;23.23;100.00
51928;BME280;37953;52.806;18.270;2022-07-01T04:29:27;100284.16;;;23.24;100.00
51928;BME280;37953;52.806;18.270;2022-07-01T04:31:55;100282.28;;;23.26;100.00
51928;BME280;37953;52.806;18.270;2022-07-01T04:34:22;100280.41;;;23.28;100.00
51928;BME280;37953;52.806;18.270;2022-07-01T04:36:51;100280.25;;;23.31;100.00
51928;BME280;37953;52.806;18.270;2022-07-01T04:39:17;100283.69;;;23.33;100.00
51928;BME280;37953;52.806;18.270;2022-07-01T04:41:43;100277.44;;;23.34;100.00
51928;BME280;37953;52.806;18.270;2022-07-01T04:44:38;100287.00;;;23.36;100.00
51928;BME280;37953;52.806;18.270;2022-07-01T04:47:04;100289.44;;;23.41;100.00
51928;BME280;37953;52.806;18.270;2022-07-01T04:49:30;100281.38;;;23.43;100.00
51928;BME280;37953;52.806;18.270;2022-07-01T04:51:57;100276.84;;;23.45;100.00
51928;BME280;37953;52.806;18.270;2022-07-01T04:54:24;100282.09;;;23.46;100.00
51928;BME280;37953;52.806;18.270;2022-07-01T04:56:56;100288.94;;;23.50;100.00
51928;BME280;37953;52.806;18.270;2022-07-01T04:59:28;100287.91;;;23.53;100.00
51928;BME280;37953;52.806;18.270;2022-07-01T05:01:54;100286.81;;;23.57;100.00
51928;BME280;37953;52.806;18.270;2022-07-01T05:04:20;100290.16;;;23.61;100.00
51928;BME280;37953;52.806;18.270;2022-07-01T05:06:46;100277.50;;;23.66;100.00
51928;BME280;37953;52.806;18.270;2022-07-01T05:09:12;100284.25;;;23.71;100.00
51928;BME280;37953;52.806;18.270;2022-07-01T05:11:38;100280.50;;;23.75;100.00
51928;BME280;37953;52.806;18.270;2022-07-01T05:14:05;100284.63;;;23.81;100.00
51928;BME280;37953;52.806;18.270;2022-07-01T05:16:32;100279.16;;;23.84;100.00
51928;BME280;37953;52.806;18.270;2022-07-01T05:18:58;100282.53;;;23.88;100.00
51928;BME280;37953;52.806;18.270;2022-07-01T05:21:43;100278.66;;;23.93;100.00
51928;BME280;37953;52.806;18.270;2022-07-01T05:24:21;100278.50;;;23.96;100.00
51928;BME280;37953;52.806;18.270;2022-07-01T05:26:49;100277.47;;;23.99;100.00
51928;BME280;37953;52.806;18.270;2022-07-01T05:29:15;100280.88;;;24.01;100.00
51928;BME280;37953;52.806;18.270;2022-07-01T05:31:41;100276.25;;;24.05;100.00
51928;BME280;37953;52.806;18.270;2022-07-01T05:34:07;100285.00;;;24.07;100.00
51928;BME280;37953;52.806;18.270;2022-07-01T05:36:34;100284.72;;;24.11;100.00
51928;BME280;37953;52.806;18.270;2022-07-01T05:39:00;100281.97;;;24.13;100.00
51928;BME280;37953;52.806;18.270;2022-07-01T05:41:27;100287.03;;;24.17;100.00
51928;BME280;37953;52.806;18.270;2022-07-01T05:43:53;100283.28;;;24.22;100.00
51928;BME280;37953;52.806;18.270;2022-07-01T05:46:19;100280.44;;;24.25;100.00
51928;BME280;37953;52.806;18.270;2022-07-01T05:48:45;100283.78;;;24.28;100.00
51928;BME280;37953;52.806;18.270;2022-07-01T05:51:11;100280.00;;;24.32;100.00
51928;BME280;37953;52.806;18.270;2022-07-01T05:53:37;100284.97;;;24.38;100.00
51928;BME280;37953;52.806;18.270;2022-07-01T05:56:03;100280.22;;;24.44;100.00
51928;BME280;37953;52.806;18.270;2022-07-01T05:58:29;100284.41;;;24.48;100.00
51928;BME280;37953;52.806;18.270;2022-07-01T06:00:55;100284.09;;;24.54;100.00
51928;BME280;37953;52.806;18.270;2022-07-01T06:03:21;100283.81;;;24.58;100.00
51928;BME280;37953;52.806;18.270;2022-07-01T06:05:47;100292.34;;;24.64;100.00
51928;BME280;37953;52.806;18.270;2022-07-01T06:08:13;100278.91;;;24.67;100.00
51928;BME280;37953;52.806;18.270;2022-07-01T06:10:39;100284.91;;;24.70;100.00
51928;BME280;37953;52.806;18.270;2022-07-01T06:13:05;100282.91;;;24.74;100.00
51928;BME280;37953;52.806;18.270;2022-07-01T06:15:32;100286.31;;;24.76;100.00
51928;BME280;37953;52.806;18.270;2022-07-01T06:17:58;100287.94;;;24.78;100.00
51928;BME280;37953;52.806;18.270;2022-07-01T06:20:24;100289.59;;;24.81;100.00
51928;BME280;37953;52.806;18.270;2022-07-01T06:22:50;100292.03;;;24.84;100.00
51928;BME280;37953;52.806;18.270;2022-07-01T06:25:16;100289.22;;;24.87;100.00
51928;BME280;37953;52.806;18.270;2022-07-01T06:27:43;100286.28;;;24.92;100.00
51928;BME280;37953;52.806;18.270;2022-07-01T06:30:10;100287.88;;;24.94;100.00
51928;BME280;37953;52.806;18.270;2022-07-01T06:32:37;100279.72;;;24.97;100.00
51928;BME280;37953;52.806;18.270;2022-07-01T06:35:04;100283.91;;;25.02;100.00
51928;BME280;37953;52.806;18.270;2022-07-01T06:37:30;100278.50;;;25.03;100.00
51928;BME280;37953;52.806;18.270;2022-07-01T06:40:03;100282.78;;;25.06;100.00
51928;BME280;37953;52.806;18.270;2022-07-01T06:42:30;100284.31;;;25.10;100.00
51928;BME280;37953;52.806;18.270;2022-07-01T06:44:55;100277.28;;;25.09;100.00
51928;BME280;37953;52.806;18.270;2022-07-01T06:47:28;100286.03;;;25.11;100.00
51928;BME280;37953;52.806;18.270;2022-07-01T06:49:54;100283.38;;;25.11;100.00
51928;BME280;37953;52.806;18.270;2022-07-01T06:52:20;100285.06;;;25.12;100.00
51928;BME280;37953;52.806;18.270;2022-07-01T06:54:46;100292.94;;;25.13;100.00
51928;BME280;37953;52.806;18.270;2022-07-01T06:57:12;100281.34;;;25.14;100.00
51928;BME280;37953;52.806;18.270;2022-07-01T06:59:38;100281.09;;;25.19;100.00
51928;BME280;37953;52.806;18.270;2022-07-01T07:02:05;100275.63;;;25.22;100.00
51928;BME280;37953;52.806;18.270;2022-07-01T07:04:34;100275.53;;;25.24;100.00
51928;BME280;37953;52.806;18.270;2022-07-01T07:07:06;100274.38;;;25.28;100.00
51928;BME280;37953;52.806;18.270;2022-07-01T07:09:32;100275.16;;;25.30;100.00
51928;BME280;37953;52.806;18.270;2022-07-01T07:11:57;100275.03;;;25.31;100.00
51928;BME280;37953;52.806;18.270;2022-07-01T07:14:23;100271.44;;;25.32;100.00
51928;BME280;37953;52.806;18.270;2022-07-01T07:16:49;100266.13;;;25.32;100.00
51928;BME280;37953;52.806;18.270;2022-07-01T07:19:16;100256.25;;;25.34;100.00
51928;BME280;37953;52.806;18.270;2022-07-01T07:21:42;100257.84;;;25.37;100.00
51928;BME280;37953;52.806;18.270;2022-07-01T07:24:08;100262.25;;;25.38;100.00
51928;BME280;37953;52.806;18.270;2022-07-01T07:26:34;100265.66;;;25.40;100.00
51928;BME280;37953;52.806;18.270;2022-07-01T07:29:00;100257.47;;;25.43;100.00
51928;BME280;37953;52.806;18.270;2022-07-01T07:31:26;100251.19;;;25.44;100.00
51928;BME280;37953;52.806;18.270;2022-07-01T07:33:52;100257.28;;;25.46;100.00
51928;BME280;37953;52.806;18.270;2022-07-01T07:36:18;100253.69;;;25.47;100.00
51928;BME280;37953;52.806;18.270;2022-07-01T07:38:44;100251.78;;;25.49;100.00
51928;BME280;37953;52.806;18.270;2022-07-01T07:41:10;100250.63;;;25.53;100.00
51928;BME280;37953;52.806;18.270;2022-07-01T07:43:36;100248.72;;;25.55;100.00
51928;BME280;37953;52.806;18.270;2022-07-01T07:46:02;100236.19;;;25.57;100.00
51928;BME280;37953;52.806;18.270;2022-07-01T07:48:29;100242.06;;;25.63;100.00
51928;BME280;37953;52.806;18.270;2022-07-01T07:50:55;100236.72;;;25.63;100.00
51928;BME280;37953;52.806;18.270;2022-07-01T07:53:21;100244.25;;;25.70;100.00
51928;BME280;37953;52.806;18.270;2022-07-01T07:55:47;100238.72;;;25.73;100.00
51928;BME280;37953;52.806;18.270;2022-07-01T07:58:13;100240.22;;;25.77;100.00
51928;BME280;37953;52.806;18.270;2022-07-01T08:00:39;100246.22;;;25.81;100.00
51928;BME280;37953;52.806;18.270;2022-07-01T08:03:05;100233.56;;;25.85;100.00
51928;BME280;37953;52.806;18.270;2022-07-01T08:05:31;100229.78;;;25.89;100.00
51928;BME280;37953;52.806;18.270;2022-07-01T08:07:57;100223.41;;;25.91;100.00
51928;BME280;37953;52.806;18.270;2022-07-01T08:10:23;100229.47;;;25.93;100.00
51928;BME280;37953;52.806;18.270;2022-07-01T08:12:49;100222.34;;;25.94;100.00
51928;BME280;37953;52.806;18.270;2022-07-01T08:15:16;100221.28;;;25.96;100.00
51928;BME280;37953;52.806;18.270;2022-07-01T08:17:43;100231.63;;;26.01;100.00
51928;BME280;37953;52.806;18.270;2022-07-01T08:20:10;100214.63;;;26.04;100.00
51928;BME280;37953;52.806;18.270;2022-07-01T08:22:36;100217.81;;;26.09;100.00
51928;BME280;37953;52.806;18.270;2022-07-01T08:25:05;100215.91;;;26.11;100.00
51928;BME280;37953;52.806;18.270;2022-07-01T08:27:31;100216.44;;;26.16;100.00
51928;BME280;37953;52.806;18.270;2022-07-01T08:29:57;100212.09;;;26.15;100.00
51928;BME280;37953;52.806;18.270;2022-07-01T08:32:23;100224.59;;;26.27;100.00
51928;BME280;37953;52.806;18.270;2022-07-01T08:34:55;100217.22;;;26.31;100.00
51928;BME280;37953;52.806;18.270;2022-07-01T08:37:21;100230.03;;;26.38;100.00
51928;BME280;37953;52.806;18.270;2022-07-01T08:39:47;100226.22;;;26.43;100.00
51928;BME280;37953;52.806;18.270;2022-07-01T08:42:14;100221.31;;;26.49;100.00
51928;BME280;37953;52.806;18.270;2022-07-01T08:44:46;100220.06;;;26.55;100.00
51928;BME280;37953;52.806;18.270;2022-07-01T08:47:12;100213.69;;;26.57;100.00
51928;BME280;37953;52.806;18.270;2022-07-01T08:49:39;100222.97;;;26.65;100.00
51928;BME280;37953;52.806;18.270;2022-07-01T08:52:05;100210.19;;;26.70;100.00
51928;BME280;37953;52.806;18.270;2022-07-01T08:54:31;100220.44;;;26.76;100.00
51928;BME280;37953;52.806;18.270;2022-07-01T08:56:57;100212.13;;;26.80;100.00
51928;BME280;37953;52.806;18.270;2022-07-01T08:59:25;100213.53;;;26.86;100.00
51928;BME280;37953;52.806;18.270;2022-07-01T09:01:59;100210.13;;;26.84;100.00
51928;BME280;37953;52.806;18.270;2022-07-01T09:04:26;100213.53;;;26.86;100.00
51928;BME280;37953;52.806;18.270;2022-07-01T09:07:00;100203.72;;;26.87;100.00
51928;BME280;37953;52.806;18.270;2022-07-01T09:09:27;100214.88;;;26.92;100.00
51928;BME280;37953;52.806;18.270;2022-07-01T09:11:54;100216.47;;;26.94;100.00
51928;BME280;37953;52.806;18.270;2022-07-01T09:14:25;100207.31;;;26.98;100.00
51928;BME280;37953;52.806;18.270;2022-07-01T09:16:54;100214.03;;;27.04;100.00
51928;BME280;37953;52.806;18.270;2022-07-01T09:19:22;100210.94;;;27.10;100.00
51928;BME280;37953;52.806;18.270;2022-07-01T09:21:50;100215.00;;;27.16;100.00
51928;BME280;37953;52.806;18.270;2022-07-01T09:27:12;100206.47;;;27.24;100.00
51928;BME280;37953;52.806;18.270;2022-07-01T09:29:51;100207.94;;;27.28;100.00
51928;BME280;37953;52.806;18.270;2022-07-01T09:32:19;100195.16;;;27.33;100.00
51928;BME280;37953;52.806;18.270;2022-07-01T09:34:53;100201.75;;;27.40;100.00
51928;BME280;37953;52.806;18.270;2022-07-01T09:37:23;100197.78;;;27.46;100.00
51928;BME280;37953;52.806;18.270;2022-07-01T09:39:51;100200.88;;;27.52;100.00
51928;BME280;37953;52.806;18.270;2022-07-01T09:42:19;100198.84;;;27.56;100.00
51928;BME280;37953;52.806;18.270;2022-07-01T09:47:26;100196.34;;;27.66;100.00
51928;BME280;37953;52.806;18.270;2022-07-01T09:49:58;100193.31;;;27.70;100.00
51928;BME280;37953;52.806;18.270;2022-07-01T09:52:24;100188.50;;;27.75;100.00
51928;BME280;37953;52.806;18.270;2022-07-01T09:54:51;100192.53;;;27.81;100.00
51928;BME280;37953;52.806;18.270;2022-07-01T09:57:18;100184.09;;;27.87;100.00
51928;BME280;37953;52.806;18.270;2022-07-01T09:59:44;100190.19;;;27.89;100.00
51928;BME280;37953;52.806;18.270;2022-07-01T10:02:11;100183.53;;;27.95;100.00
51928;BME280;37953;52.806;18.270;2022-07-01T10:04:40;100181.50;;;27.98;100.00
51928;BME280;37953;52.806;18.270;2022-07-01T10:10:15;100180.81;;;28.08;100.00
51928;BME280;37953;52.806;18.270;2022-07-01T10:12:46;100173.53;;;28.10;100.00
51928;BME280;37953;52.806;18.270;2022-07-01T10:15:17;100173.91;;;28.16;100.00
51928;BME280;37953;52.806;18.270;2022-07-01T10:17:45;100174.44;;;28.21;100.00
51928;BME280;37953;52.806;18.270;2022-07-01T10:20:18;100173.00;;;28.29;100.00
51928;BME280;37953;52.806;18.270;2022-07-01T10:22:46;100170.31;;;28.29;100.00
51928;BME280;37953;52.806;18.270;2022-07-01T10:25:31;100162.78;;;28.34;100.00
51928;BME280;37953;52.806;18.270;2022-07-01T10:28:17;100170.34;;;28.40;100.00
51928;BME280;37953;52.806;18.270;2022-07-01T10:31:01;100160.28;;;28.43;100.00
51928;BME280;37953;52.806;18.270;2022-07-01T10:41:31;100153.53;;;28.62;100.00
51928;BME280;37953;52.806;18.270;2022-07-01T10:43:58;100147.72;;;28.68;100.00
51928;BME280;37953;52.806;18.270;2022-07-01T10:46:51;100155.75;;;28.79;100.00
51928;BME280;37953;52.806;18.270;2022-07-01T10:52:14;100153.53;;;28.85;100.00
51928;BME280;37953;52.806;18.270;2022-07-01T10:59:47;100155.03;;;29.00;100.00
51928;BME280;37953;52.806;18.270;2022-07-01T11:02:25;100156.44;;;29.04;100.00
51928;BME280;37953;52.806;18.270;2022-07-01T11:04:55;100144.53;;;29.08;100.00
51928;BME280;37953;52.806;18.270;2022-07-01T11:07:24;100154.78;;;29.14;100.00
51928;BME280;37953;52.806;18.270;2022-07-01T11:09:50;100144.81;;;29.16;100.00
51928;BME280;37953;52.806;18.270;2022-07-01T11:12:17;100143.59;;;29.20;100.00
51928;BME280;37953;52.806;18.270;2022-07-01T11:14:44;100141.41;;;29.26;100.00
51928;BME280;37953;52.806;18.270;2022-07-01T11:17:10;100139.09;;;29.32;100.00
51928;BME280;37953;52.806;18.270;2022-07-01T11:19:36;100128.84;;;29.37;100.00
51928;BME280;37953;52.806;18.270;2022-07-01T11:22:03;100124.94;;;29.41;100.00
51928;BME280;37953;52.806;18.270;2022-07-01T11:24:36;100125.56;;;29.45;100.00
51928;BME280;37953;52.806;18.270;2022-07-01T11:27:11;100123.34;;;29.50;100.00
51928;BME280;37953;52.806;18.270;2022-07-01T11:29:36;100112.25;;;29.55;100.00
51928;BME280;37953;52.806;18.270;2022-07-01T11:32:03;100110.06;;;29.60;100.00
51928;BME280;37953;52.806;18.270;2022-07-01T11:34:30;100113.19;;;29.65;100.00
51928;BME280;37953;52.806;18.270;2022-07-01T11:37:14;100111.13;;;29.69;100.00
51928;BME280;37953;52.806;18.270;2022-07-01T11:40:08;100115.88;;;29.76;100.00
51928;BME280;37953;52.806;18.270;2022-07-01T11:42:35;100103.66;;;29.83;100.00
51928;BME280;37953;52.806;18.270;2022-07-01T11:45:02;100102.44;;;29.88;100.00
51928;BME280;37953;52.806;18.270;2022-07-01T11:47:28;100100.34;;;29.91;100.00
51928;BME280;37953;52.806;18.270;2022-07-01T11:49:55;100099.94;;;29.96;100.00
51928;BME280;37953;52.806;18.270;2022-07-01T11:52:22;100090.81;;;29.98;100.00
51928;BME280;37953;52.806;18.270;2022-07-01T11:54:52;100094.91;;;30.02;100.00
51928;BME280;37953;52.806;18.270;2022-07-01T11:57:26;100090.00;;;30.08;100.00
51928;BME280;37953;52.806;18.270;2022-07-01T11:59:55;100090.72;;;30.10;100.00
51928;BME280;37953;52.806;18.270;2022-07-01T12:02:28;100098.84;;;30.19;100.00
51928;BME280;37953;52.806;18.270;2022-07-01T12:04:53;100096.75;;;30.23;100.00
51928;BME280;37953;52.806;18.270;2022-07-01T12:07:20;100094.78;;;30.25;100.00
51928;BME280;37953;52.806;18.270;2022-07-01T12:09:47;100096.97;;;30.31;100.00
51928;BME280;37953;52.806;18.270;2022-07-01T12:12:21;100092.47;;;30.32;100.00
51928;BME280;37953;52.806;18.270;2022-07-01T12:18:30;100084.88;;;30.37;100.00
51928;BME280;37953;52.806;18.270;2022-07-01T12:20:57;100098.06;;;30.50;100.00
51928;BME280;37953;52.806;18.270;2022-07-01T12:23:27;100091.56;;;30.52;100.00
51928;BME280;37953;52.806;18.270;2022-07-01T12:25:52;100073.78;;;30.51;99.73
51928;BME280;37953;52.806;18.270;2022-07-01T12:28:29;100092.94;;;30.68;100.00
51928;BME280;37953;52.806;18.270;2022-07-01T12:31:03;100078.28;;;30.72;100.00
51928;BME280;37953;52.806;18.270;2022-07-01T12:34:48;100081.66;;;30.74;97.96
51928;BME280;37953;52.806;18.270;2022-07-01T12:39:43;100066.72;;;30.81;92.78
51928;BME280;37953;52.806;18.270;2022-07-01T12:42:19;100075.09;;;30.88;94.13
51928;BME280;37953;52.806;18.270;2022-07-01T12:44:46;100074.41;;;30.95;89.92
51928;BME280;37953;52.806;18.270;2022-07-01T12:47:26;100078.66;;;30.98;85.79
51928;BME280;37953;52.806;18.270;2022-07-01T12:50:12;100071.19;;;31.01;80.34
51928;BME280;37953;52.806;18.270;2022-07-01T12:55:35;100060.75;;;31.18;81.15
51928;BME280;37953;52.806;18.270;2022-07-01T12:58:05;100054.44;;;31.29;79.94
51928;BME280;37953;52.806;18.270;2022-07-01T13:00:38;100058.69;;;31.31;81.84
51928;BME280;37953;52.806;18.270;2022-07-01T13:03:05;100058.13;;;31.37;81.60
51928;BME280;37953;52.806;18.270;2022-07-01T13:05:34;100057.31;;;31.47;80.04
51928;BME280;37953;52.806;18.270;2022-07-01T13:08:07;100053.47;;;31.49;81.25
51928;BME280;37953;52.806;18.270;2022-07-01T13:10:33;100055.19;;;31.50;80.34